sensor_id;sensor_type;location;lat;lon;timestamp;P1;durP1;ratioP1;P2;durP2;ratioP2
26594;SDS011;14238;49.496;8.154;2022-08-30T00:01:31;3.73;;;2.43;;
26594;SDS011;14238;49.496;8.154;2022-08-30T00:03:58;3.20;;;2.50;;
26594;SDS011;14238;49.496;8.154;2022-08-30T00:06:25;3.30;;;2.70;;
26594;SDS011;14238;49.496;8.154;2022-08-30T00:08:53;2.93;;;2.73;;
26594;SDS011;14238;49.496;8.154;2022-08-30T00:11:20;3.10;;;2.50;;
26594;SDS011;14238;49.496;8.154;2022-08-30T00:13:47;3.17;;;2.87;;
26594;SDS011;14238;49.496;8.154;2022-08-30T00:16:15;2.77;;;2.57;;
26594;SDS011;14238;49.496;8.154;2022-08-30T00:18:42;3.03;;;2.50;;
26594;SDS011;14238;49.496;8.154;2022-08-30T00:21:08;3.70;;;3.00;;
26594;SDS011;14238;49.496;8.154;2022-08-30T00:23:34;2.40;;;2.20;;
26594;SDS011;14238;49.496;8.154;2022-08-30T00:26:01;4.67;;;2.60;;
26594;SDS011;14238;49.496;8.154;2022-08-30T00:28:26;3.10;;;2.50;;
26594;SDS011;14238;49.496;8.154;2022-08-30T00:30:53;4.80;;;2.77;;
26594;SDS011;14238;49.496;8.154;2022-08-30T00:33:18;6.10;;;2.60;;
26594;SDS011;14238;49.496;8.154;2022-08-30T00:35:44;2.90;;;2.70;;
26594;SDS011;14238;49.496;8.154;2022-08-30T00:38:11;4.97;;;3.67;;
26594;SDS011;14238;49.496;8.154;2022-08-30T00:40:38;2.87;;;2.67;;
26594;SDS011;14238;49.496;8.154;2022-08-30T00:43:06;2.30;;;2.20;;
26594;SDS011;14238;49.496;8.154;2022-08-30T00:45:36;2.80;;;2.50;;
26594;SDS011;14238;49.496;8.154;2022-08-30T00:48:02;3.97;;;3.23;;
26594;SDS011;14238;49.496;8.154;2022-08-30T00:50:31;3.90;;;2.47;;
26594;SDS011;14238;49.496;8.154;2022-08-30T00:53:02;4.50;;;3.17;;
26594;SDS011;14238;49.496;8.154;2022-08-30T00:55:31;3.03;;;2.77;;
26594;SDS011;14238;49.496;8.154;2022-08-30T00:57:57;3.60;;;3.30;;
26594;SDS011;14238;49.496;8.154;2022-08-30T01:00:26;4.43;;;2.50;;
26594;SDS011;14238;49.496;8.154;2022-08-30T01:02:52;3.00;;;2.80;;
26594;SDS011;14238;49.496;8.154;2022-08-30T01:05:18;2.40;;;2.20;;
26594;SDS011;14238;49.496;8.154;2022-08-30T01:07:45;2.40;;;2.30;;
26594;SDS011;14238;49.496;8.154;2022-08-30T01:10:11;2.80;;;2.57;;
26594;SDS011;14238;49.496;8.154;2022-08-30T01:12:39;4.80;;;3.10;;
26594;SDS011;14238;49.496;8.154;2022-08-30T01:15:06;6.57;;;3.00;;
26594;SDS011;14238;49.496;8.154;2022-08-30T01:17:33;6.13;;;2.63;;
26594;SDS011;14238;49.496;8.154;2022-08-30T01:25:00;4.23;;;3.10;;
26594;SDS011;14238;49.496;8.154;2022-08-30T01:27:27;2.97;;;2.77;;
26594;SDS011;14238;49.496;8.154;2022-08-30T01:29:55;2.53;;;2.27;;
26594;SDS011;14238;49.496;8.154;2022-08-30T01:32:22;2.63;;;2.43;;
26594;SDS011;14238;49.496;8.154;2022-08-30T01:34:50;4.53;;;3.37;;
26594;SDS011;14238;49.496;8.154;2022-08-30T01:37:21;5.03;;;2.90;;
26594;SDS011;14238;49.496;8.154;2022-08-30T01:39:51;3.17;;;2.90;;
26594;SDS011;14238;49.496;8.154;2022-08-30T01:42:17;5.10;;;3.50;;
26594;SDS011;14238;49.496;8.154;2022-08-30T01:44:43;3.10;;;2.80;;
26594;SDS011;14238;49.496;8.154;2022-08-30T01:47:09;2.90;;;2.70;;
26594;SDS011;14238;49.496;8.154;2022-08-30T01:49:35;2.53;;;2.33;;
26594;SDS011;14238;49.496;8.154;2022-08-30T01:52:01;2.73;;;2.53;;
26594;SDS011;14238;49.496;8.154;2022-08-30T01:54:29;3.03;;;2.60;;
26594;SDS011;14238;49.496;8.154;2022-08-30T01:56:55;3.87;;;3.57;;
26594;SDS011;14238;49.496;8.154;2022-08-30T01:59:21;3.10;;;2.90;;
26594;SDS011;14238;49.496;8.154;2022-08-30T02:01:46;3.40;;;3.10;;
26594;SDS011;14238;49.496;8.154;2022-08-30T02:04:12;3.50;;;3.23;;
26594;SDS011;14238;49.496;8.154;2022-08-30T02:06:39;2.93;;;2.73;;
26594;SDS011;14238;49.496;8.154;2022-08-30T02:09:05;3.57;;;3.27;;
26594;SDS011;14238;49.496;8.154;2022-08-30T02:11:31;3.63;;;2.80;;
26594;SDS011;14238;49.496;8.154;2022-08-30T02:13:56;5.90;;;2.90;;
26594;SDS011;14238;49.496;8.154;2022-08-30T02:16:22;3.10;;;2.80;;
26594;SDS011;14238;49.496;8.154;2022-08-30T02:18:52;3.07;;;2.87;;
26594;SDS011;14238;49.496;8.154;2022-08-30T02:21:20;4.10;;;2.70;;
26594;SDS011;14238;49.496;8.154;2022-08-30T02:23:45;2.93;;;2.73;;
26594;SDS011;14238;49.496;8.154;2022-08-30T02:26:11;4.30;;;2.57;;
26594;SDS011;14238;49.496;8.154;2022-08-30T02:28:37;4.40;;;3.43;;
26594;SDS011;14238;49.496;8.154;2022-08-30T02:31:03;2.73;;;2.53;;
26594;SDS011;14238;49.496;8.154;2022-08-30T02:33:28;4.73;;;2.80;;
26594;SDS011;14238;49.496;8.154;2022-08-30T02:35:55;3.37;;;2.97;;
26594;SDS011;14238;49.496;8.154;2022-08-30T02:38:21;2.67;;;2.47;;
26594;SDS011;14238;49.496;8.154;2022-08-30T02:40:47;3.10;;;2.90;;
26594;SDS011;14238;49.496;8.154;2022-08-30T02:43:13;3.03;;;2.50;;
26594;SDS011;14238;49.496;8.154;2022-08-30T02:45:39;3.63;;;2.83;;
26594;SDS011;14238;49.496;8.154;2022-08-30T02:48:05;3.80;;;2.93;;
26594;SDS011;14238;49.496;8.154;2022-08-30T02:50:30;4.53;;;2.87;;
26594;SDS011;14238;49.496;8.154;2022-08-30T02:52:56;3.37;;;3.17;;
26594;SDS011;14238;49.496;8.154;2022-08-30T02:55:21;3.70;;;2.67;;
26594;SDS011;14238;49.496;8.154;2022-08-30T02:57:47;4.27;;;2.77;;
26594;SDS011;14238;49.496;8.154;2022-08-30T03:00:14;3.13;;;2.57;;
26594;SDS011;14238;49.496;8.154;2022-08-30T03:02:42;3.13;;;2.50;;
26594;SDS011;14238;49.496;8.154;2022-08-30T03:05:08;2.87;;;2.63;;
26594;SDS011;14238;49.496;8.154;2022-08-30T03:07:36;3.27;;;2.80;;
26594;SDS011;14238;49.496;8.154;2022-08-30T03:10:03;3.63;;;3.20;;
26594;SDS011;14238;49.496;8.154;2022-08-30T03:12:29;2.80;;;2.60;;
26594;SDS011;14238;49.496;8.154;2022-08-30T03:14:56;2.60;;;2.40;;
26594;SDS011;14238;49.496;8.154;2022-08-30T03:17:22;3.03;;;2.77;;
26594;SDS011;14238;49.496;8.154;2022-08-30T03:19:48;3.00;;;2.80;;
26594;SDS011;14238;49.496;8.154;2022-08-30T03:22:13;2.93;;;2.73;;
26594;SDS011;14238;49.496;8.154;2022-08-30T03:24:39;3.93;;;2.80;;
26594;SDS011;14238;49.496;8.154;2022-08-30T03:27:05;4.03;;;3.50;;
26594;SDS011;14238;49.496;8.154;2022-08-30T03:29:31;3.47;;;3.23;;
26594;SDS011;14238;49.496;8.154;2022-08-30T03:31:58;3.27;;;2.97;;
26594;SDS011;14238;49.496;8.154;2022-08-30T03:34:24;5.27;;;2.77;;
26594;SDS011;14238;49.496;8.154;2022-08-30T03:36:50;3.10;;;2.90;;
26594;SDS011;14238;49.496;8.154;2022-08-30T03:39:17;3.23;;;2.67;;
26594;SDS011;14238;49.496;8.154;2022-08-30T03:41:42;3.63;;;3.33;;
26594;SDS011;14238;49.496;8.154;2022-08-30T03:44:09;2.90;;;2.70;;
26594;SDS011;14238;49.496;8.154;2022-08-30T03:46:35;4.83;;;3.57;;
26594;SDS011;14238;49.496;8.154;2022-08-30T03:49:02;4.30;;;3.10;;
26594;SDS011;14238;49.496;8.154;2022-08-30T03:51:28;4.17;;;3.30;;
26594;SDS011;14238;49.496;8.154;2022-08-30T03:53:53;3.10;;;2.90;;
26594;SDS011;14238;49.496;8.154;2022-08-30T03:56:19;3.17;;;2.77;;
26594;SDS011;14238;49.496;8.154;2022-08-30T03:58:44;3.23;;;3.03;;
26594;SDS011;14238;49.496;8.154;2022-08-30T04:01:10;3.00;;;2.70;;
26594;SDS011;14238;49.496;8.154;2022-08-30T04:03:36;2.93;;;2.73;;
26594;SDS011;14238;49.496;8.154;2022-08-30T04:06:01;2.80;;;2.53;;
26594;SDS011;14238;49.496;8.154;2022-08-30T04:08:28;3.30;;;2.97;;
26594;SDS011;14238;49.496;8.154;2022-08-30T04:10:54;3.33;;;3.03;;
26594;SDS011;14238;49.496;8.154;2022-08-30T04:13:20;5.63;;;2.73;;
26594;SDS011;14238;49.496;8.154;2022-08-30T04:15:47;2.90;;;2.40;;
26594;SDS011;14238;49.496;8.154;2022-08-30T04:18:13;7.80;;;2.77;;
26594;SDS011;14238;49.496;8.154;2022-08-30T04:20:38;3.17;;;2.43;;
26594;SDS011;14238;49.496;8.154;2022-08-30T04:23:04;8.23;;;3.20;;
26594;SDS011;14238;49.496;8.154;2022-08-30T04:25:33;5.50;;;3.17;;
26594;SDS011;14238;49.496;8.154;2022-08-30T04:28:00;3.17;;;2.60;;
26594;SDS011;14238;49.496;8.154;2022-08-30T04:30:26;5.23;;;2.90;;
26594;SDS011;14238;49.496;8.154;2022-08-30T04:32:52;3.00;;;2.80;;
26594;SDS011;14238;49.496;8.154;2022-08-30T04:35:17;2.50;;;2.30;;
26594;SDS011;14238;49.496;8.154;2022-08-30T04:37:43;3.23;;;2.80;;
26594;SDS011;14238;49.496;8.154;2022-08-30T04:40:10;3.63;;;2.40;;
26594;SDS011;14238;49.496;8.154;2022-08-30T04:42:35;2.43;;;2.30;;
26594;SDS011;14238;49.496;8.154;2022-08-30T04:45:02;2.90;;;2.50;;
26594;SDS011;14238;49.496;8.154;2022-08-30T04:47:31;2.40;;;2.30;;
26594;SDS011;14238;49.496;8.154;2022-08-30T04:49:57;5.30;;;2.63;;
26594;SDS011;14238;49.496;8.154;2022-08-30T04:52:23;3.30;;;3.10;;
26594;SDS011;14238;49.496;8.154;2022-08-30T04:54:53;2.80;;;2.60;;
26594;SDS011;14238;49.496;8.154;2022-08-30T04:57:19;5.00;;;2.80;;
26594;SDS011;14238;49.496;8.154;2022-08-30T04:59:45;3.10;;;2.90;;
26594;SDS011;14238;49.496;8.154;2022-08-30T05:02:10;4.27;;;2.83;;
26594;SDS011;14238;49.496;8.154;2022-08-30T05:04:36;3.07;;;2.77;;
26594;SDS011;14238;49.496;8.154;2022-08-30T05:07:21;3.70;;;3.20;;
26594;SDS011;14238;49.496;8.154;2022-08-30T05:09:47;3.17;;;2.97;;
26594;SDS011;14238;49.496;8.154;2022-08-30T05:12:12;5.33;;;3.10;;
26594;SDS011;14238;49.496;8.154;2022-08-30T05:14:38;3.33;;;2.97;;
26594;SDS011;14238;49.496;8.154;2022-08-30T05:17:03;3.30;;;3.00;;
26594;SDS011;14238;49.496;8.154;2022-08-30T05:19:30;3.73;;;3.27;;
26594;SDS011;14238;49.496;8.154;2022-08-30T05:21:57;3.27;;;2.97;;
26594;SDS011;14238;49.496;8.154;2022-08-30T05:24:23;3.17;;;2.87;;
26594;SDS011;14238;49.496;8.154;2022-08-30T05:26:49;3.00;;;2.80;;
26594;SDS011;14238;49.496;8.154;2022-08-30T05:29:14;3.07;;;2.50;;
26594;SDS011;14238;49.496;8.154;2022-08-30T05:31:40;3.17;;;2.97;;
26594;SDS011;14238;49.496;8.154;2022-08-30T05:34:11;3.20;;;3.00;;
26594;SDS011;14238;49.496;8.154;2022-08-30T05:36:37;3.37;;;2.80;;
26594;SDS011;14238;49.496;8.154;2022-08-30T05:39:04;2.63;;;2.43;;
26594;SDS011;14238;49.496;8.154;2022-08-30T05:41:31;5.23;;;3.13;;
26594;SDS011;14238;49.496;8.154;2022-08-30T05:43:57;3.73;;;3.43;;
26594;SDS011;14238;49.496;8.154;2022-08-30T05:46:24;2.93;;;2.73;;
26594;SDS011;14238;49.496;8.154;2022-08-30T05:48:53;3.10;;;2.90;;
26594;SDS011;14238;49.496;8.154;2022-08-30T05:51:20;3.37;;;3.07;;
26594;SDS011;14238;49.496;8.154;2022-08-30T05:53:48;3.27;;;2.97;;
26594;SDS011;14238;49.496;8.154;2022-08-30T05:56:16;3.40;;;3.07;;
26594;SDS011;14238;49.496;8.154;2022-08-30T05:58:44;3.30;;;3.07;;
26594;SDS011;14238;49.496;8.154;2022-08-30T06:01:26;3.47;;;2.23;;
26594;SDS011;14238;49.496;8.154;2022-08-30T06:03:54;3.50;;;3.03;;
26594;SDS011;14238;49.496;8.154;2022-08-30T06:06:21;3.00;;;2.70;;
26594;SDS011;14238;49.496;8.154;2022-08-30T06:08:47;4.50;;;2.53;;
26594;SDS011;14238;49.496;8.154;2022-08-30T06:11:14;3.33;;;3.03;;
26594;SDS011;14238;49.496;8.154;2022-08-30T06:13:41;2.87;;;2.60;;
26594;SDS011;14238;49.496;8.154;2022-08-30T06:16:07;6.10;;;3.30;;
26594;SDS011;14238;49.496;8.154;2022-08-30T06:18:39;4.07;;;2.77;;
26594;SDS011;14238;49.496;8.154;2022-08-30T06:21:05;4.67;;;3.10;;
26594;SDS011;14238;49.496;8.154;2022-08-30T06:23:30;8.23;;;3.20;;
26594;SDS011;14238;49.496;8.154;2022-08-30T06:26:01;4.03;;;2.97;;
26594;SDS011;14238;49.496;8.154;2022-08-30T06:28:31;3.47;;;2.83;;
26594;SDS011;14238;49.496;8.154;2022-08-30T06:30:56;7.20;;;3.40;;
26594;SDS011;14238;49.496;8.154;2022-08-30T06:33:22;6.03;;;3.27;;
26594;SDS011;14238;49.496;8.154;2022-08-30T06:35:48;3.20;;;2.70;;
26594;SDS011;14238;49.496;8.154;2022-08-30T06:38:14;3.93;;;3.50;;
26594;SDS011;14238;49.496;8.154;2022-08-30T06:40:40;3.83;;;2.67;;
26594;SDS011;14238;49.496;8.154;2022-08-30T06:43:06;4.17;;;2.97;;
26594;SDS011;14238;49.496;8.154;2022-08-30T06:45:32;3.13;;;2.83;;
26594;SDS011;14238;49.496;8.154;2022-08-30T06:47:59;4.13;;;2.97;;
26594;SDS011;14238;49.496;8.154;2022-08-30T06:50:24;5.20;;;3.20;;
26594;SDS011;14238;49.496;8.154;2022-08-30T06:52:50;3.00;;;2.80;;
26594;SDS011;14238;49.496;8.154;2022-08-30T06:55:16;5.30;;;2.40;;
26594;SDS011;14238;49.496;8.154;2022-08-30T06:57:42;4.33;;;2.87;;
26594;SDS011;14238;49.496;8.154;2022-08-30T07:00:09;5.70;;;3.20;;
26594;SDS011;14238;49.496;8.154;2022-08-30T07:02:39;4.63;;;2.90;;
26594;SDS011;14238;49.496;8.154;2022-08-30T07:05:06;3.53;;;3.23;;
26594;SDS011;14238;49.496;8.154;2022-08-30T07:07:33;3.37;;;2.80;;
26594;SDS011;14238;49.496;8.154;2022-08-30T07:10:01;4.90;;;3.27;;
26594;SDS011;14238;49.496;8.154;2022-08-30T07:12:29;9.23;;;3.67;;
26594;SDS011;14238;49.496;8.154;2022-08-30T07:14:55;5.87;;;2.90;;
26594;SDS011;14238;49.496;8.154;2022-08-30T07:17:20;6.80;;;3.13;;
26594;SDS011;14238;49.496;8.154;2022-08-30T07:20:05;4.47;;;3.17;;
26594;SDS011;14238;49.496;8.154;2022-08-30T07:22:31;4.57;;;3.27;;
26594;SDS011;14238;49.496;8.154;2022-08-30T07:24:57;6.20;;;3.00;;
26594;SDS011;14238;49.496;8.154;2022-08-30T07:27:23;5.33;;;2.90;;
26594;SDS011;14238;49.496;8.154;2022-08-30T07:29:49;3.03;;;2.70;;
26594;SDS011;14238;49.496;8.154;2022-08-30T07:32:14;5.17;;;3.40;;
26594;SDS011;14238;49.496;8.154;2022-08-30T07:34:40;7.00;;;3.00;;
26594;SDS011;14238;49.496;8.154;2022-08-30T07:37:05;13.23;;;3.50;;
26594;SDS011;14238;49.496;8.154;2022-08-30T07:39:31;6.20;;;3.97;;
26594;SDS011;14238;49.496;8.154;2022-08-30T07:41:57;5.43;;;3.37;;
26594;SDS011;14238;49.496;8.154;2022-08-30T07:44:22;3.70;;;3.07;;
26594;SDS011;14238;49.496;8.154;2022-08-30T07:46:48;3.87;;;3.57;;
26594;SDS011;14238;49.496;8.154;2022-08-30T07:49:13;3.53;;;3.13;;
26594;SDS011;14238;49.496;8.154;2022-08-30T07:51:39;3.37;;;3.17;;
26594;SDS011;14238;49.496;8.154;2022-08-30T07:54:05;3.20;;;2.73;;
26594;SDS011;14238;49.496;8.154;2022-08-30T07:56:31;2.57;;;2.37;;
26594;SDS011;14238;49.496;8.154;2022-08-30T07:58:57;4.03;;;3.30;;
26594;SDS011;14238;49.496;8.154;2022-08-30T08:01:23;6.43;;;2.93;;
26594;SDS011;14238;49.496;8.154;2022-08-30T08:03:49;3.63;;;3.07;;
26594;SDS011;14238;49.496;8.154;2022-08-30T08:06:15;3.57;;;3.27;;
26594;SDS011;14238;49.496;8.154;2022-08-30T08:08:43;2.83;;;2.53;;
26594;SDS011;14238;49.496;8.154;2022-08-30T08:11:19;4.53;;;3.40;;
26594;SDS011;14238;49.496;8.154;2022-08-30T08:13:47;5.07;;;3.30;;
26594;SDS011;14238;49.496;8.154;2022-08-30T08:16:14;3.50;;;3.20;;
26594;SDS011;14238;49.496;8.154;2022-08-30T08:18:40;3.87;;;3.53;;
26594;SDS011;14238;49.496;8.154;2022-08-30T08:21:05;4.10;;;3.07;;
26594;SDS011;14238;49.496;8.154;2022-08-30T08:23:31;3.27;;;2.97;;
26594;SDS011;14238;49.496;8.154;2022-08-30T08:25:57;3.23;;;2.93;;
26594;SDS011;14238;49.496;8.154;2022-08-30T08:28:23;4.13;;;3.10;;
26594;SDS011;14238;49.496;8.154;2022-08-30T08:30:49;6.03;;;3.73;;
26594;SDS011;14238;49.496;8.154;2022-08-30T08:33:14;3.83;;;3.50;;
26594;SDS011;14238;49.496;8.154;2022-08-30T08:35:41;3.37;;;3.07;;
26594;SDS011;14238;49.496;8.154;2022-08-30T08:38:07;4.93;;;3.60;;
26594;SDS011;14238;49.496;8.154;2022-08-30T08:41:10;5.33;;;3.00;;
26594;SDS011;14238;49.496;8.154;2022-08-30T08:43:33;3.10;;;2.90;;
26594;SDS011;14238;49.496;8.154;2022-08-30T08:46:20;3.40;;;3.10;;
26594;SDS011;14238;49.496;8.154;2022-08-30T08:49:06;7.80;;;3.10;;
26594;SDS011;14238;49.496;8.154;2022-08-30T08:51:34;4.17;;;2.80;;
26594;SDS011;14238;49.496;8.154;2022-08-30T08:54:42;3.40;;;3.13;;
26594;SDS011;14238;49.496;8.154;2022-08-30T08:57:17;4.63;;;3.00;;
26594;SDS011;14238;49.496;8.154;2022-08-30T08:59:43;2.70;;;2.50;;
26594;SDS011;14238;49.496;8.154;2022-08-30T09:02:18;2.70;;;2.50;;
26594;SDS011;14238;49.496;8.154;2022-08-30T09:04:48;3.40;;;3.00;;
26594;SDS011;14238;49.496;8.154;2022-08-30T09:07:20;3.63;;;2.93;;
26594;SDS011;14238;49.496;8.154;2022-08-30T09:09:48;4.77;;;2.47;;
26594;SDS011;14238;49.496;8.154;2022-08-30T09:12:14;4.13;;;2.90;;
26594;SDS011;14238;49.496;8.154;2022-08-30T09:14:43;5.20;;;3.20;;
26594;SDS011;14238;49.496;8.154;2022-08-30T09:17:12;6.63;;;3.10;;
26594;SDS011;14238;49.496;8.154;2022-08-30T09:19:43;3.90;;;2.60;;
26594;SDS011;14238;49.496;8.154;2022-08-30T09:27:31;9.53;;;3.20;;
26594;SDS011;14238;49.496;8.154;2022-08-30T09:30:01;3.13;;;2.83;;
26594;SDS011;14238;49.496;8.154;2022-08-30T09:32:33;2.63;;;2.43;;
26594;SDS011;14238;49.496;8.154;2022-08-30T09:35:05;3.87;;;3.27;;
26594;SDS011;14238;49.496;8.154;2022-08-30T09:37:45;4.43;;;2.90;;
26594;SDS011;14238;49.496;8.154;2022-08-30T09:40:21;8.50;;;2.93;;
26594;SDS011;14238;49.496;8.154;2022-08-30T09:43:04;6.30;;;2.97;;
26594;SDS011;14238;49.496;8.154;2022-08-30T09:45:34;3.73;;;2.63;;
26594;SDS011;14238;49.496;8.154;2022-08-30T09:48:19;7.00;;;3.60;;
26594;SDS011;14238;49.496;8.154;2022-08-30T09:50:48;3.07;;;2.77;;
26594;SDS011;14238;49.496;8.154;2022-08-30T09:53:37;2.90;;;2.70;;
26594;SDS011;14238;49.496;8.154;2022-08-30T09:56:08;3.13;;;2.83;;
26594;SDS011;14238;49.496;8.154;2022-08-30T09:59:01;2.77;;;2.57;;
26594;SDS011;14238;49.496;8.154;2022-08-30T10:01:42;5.53;;;3.30;;
26594;SDS011;14238;49.496;8.154;2022-08-30T10:07:11;4.83;;;3.00;;
26594;SDS011;14238;49.496;8.154;2022-08-30T10:09:51;5.27;;;3.27;;
26594;SDS011;14238;49.496;8.154;2022-08-30T10:15:13;5.07;;;2.90;;
26594;SDS011;14238;49.496;8.154;2022-08-30T10:23:20;3.33;;;3.03;;
26594;SDS011;14238;49.496;8.154;2022-08-30T10:30:56;3.57;;;3.27;;
26594;SDS011;14238;49.496;8.154;2022-08-30T10:33:27;3.27;;;3.07;;
26594;SDS011;14238;49.496;8.154;2022-08-30T10:36:02;4.37;;;3.23;;
26594;SDS011;14238;49.496;8.154;2022-08-30T10:38:34;4.90;;;3.17;;
26594;SDS011;14238;49.496;8.154;2022-08-30T10:44:05;5.03;;;2.80;;
26594;SDS011;14238;49.496;8.154;2022-08-30T10:49:01;3.83;;;3.50;;
26594;SDS011;14238;49.496;8.154;2022-08-30T10:51:31;4.10;;;2.50;;
26594;SDS011;14238;49.496;8.154;2022-08-30T10:54:22;4.17;;;3.30;;
26594;SDS011;14238;49.496;8.154;2022-08-30T10:57:04;5.53;;;2.90;;
26594;SDS011;14238;49.496;8.154;2022-08-30T10:59:29;4.47;;;3.17;;
26594;SDS011;14238;49.496;8.154;2022-08-30T11:04:44;4.13;;;3.60;;
26594;SDS011;14238;49.496;8.154;2022-08-30T11:07:37;5.60;;;3.10;;
26594;SDS011;14238;49.496;8.154;2022-08-30T11:13:14;3.13;;;2.73;;
26594;SDS011;14238;49.496;8.154;2022-08-30T11:18:30;5.10;;;3.63;;
26594;SDS011;14238;49.496;8.154;2022-08-30T11:24:02;3.50;;;3.17;;
26594;SDS011;14238;49.496;8.154;2022-08-30T11:29:28;3.20;;;3.00;;
26594;SDS011;14238;49.496;8.154;2022-08-30T11:32:01;3.13;;;2.93;;
26594;SDS011;14238;49.496;8.154;2022-08-30T11:37:29;4.30;;;3.40;;
26594;SDS011;14238;49.496;8.154;2022-08-30T11:42:47;6.90;;;3.90;;
26594;SDS011;14238;49.496;8.154;2022-08-30T11:47:53;4.07;;;3.50;;
26594;SDS011;14238;49.496;8.154;2022-08-30T11:50:21;5.00;;;3.30;;
26594;SDS011;14238;49.496;8.154;2022-08-30T11:58:39;4.30;;;3.23;;
26594;SDS011;14238;49.496;8.154;2022-08-30T12:03:54;4.43;;;4.00;;
26594;SDS011;14238;49.496;8.154;2022-08-30T12:09:03;4.40;;;4.00;;
26594;SDS011;14238;49.496;8.154;2022-08-30T12:13:55;4.17;;;3.87;;
26594;SDS011;14238;49.496;8.154;2022-08-30T12:16:22;4.33;;;3.80;;
26594;SDS011;14238;49.496;8.154;2022-08-30T12:21:57;4.20;;;3.90;;
26594;SDS011;14238;49.496;8.154;2022-08-30T12:24:30;4.27;;;3.97;;
26594;SDS011;14238;49.496;8.154;2022-08-30T12:27:00;4.07;;;3.77;;
26594;SDS011;14238;49.496;8.154;2022-08-30T12:29:49;4.60;;;3.70;;
26594;SDS011;14238;49.496;8.154;2022-08-30T12:32:19;4.90;;;4.40;;
26594;SDS011;14238;49.496;8.154;2022-08-30T12:34:56;4.60;;;4.30;;
26594;SDS011;14238;49.496;8.154;2022-08-30T12:37:42;5.37;;;4.00;;
26594;SDS011;14238;49.496;8.154;2022-08-30T12:42:47;4.50;;;4.20;;
26594;SDS011;14238;49.496;8.154;2022-08-30T12:45:16;4.43;;;4.13;;
26594;SDS011;14238;49.496;8.154;2022-08-30T12:48:05;5.40;;;4.93;;
26594;SDS011;14238;49.496;8.154;2022-08-30T12:50:48;5.30;;;4.80;;
26594;SDS011;14238;49.496;8.154;2022-08-30T12:53:22;4.30;;;3.90;;
26594;SDS011;14238;49.496;8.154;2022-08-30T12:55:53;4.70;;;4.30;;
26594;SDS011;14238;49.496;8.154;2022-08-30T13:03:54;5.80;;;4.67;;
26594;SDS011;14238;49.496;8.154;2022-08-30T13:06:37;4.50;;;4.10;;
26594;SDS011;14238;49.496;8.154;2022-08-30T13:09:02;4.73;;;4.10;;
26594;SDS011;14238;49.496;8.154;2022-08-30T13:11:28;5.80;;;4.00;;
26594;SDS011;14238;49.496;8.154;2022-08-30T13:14:18;5.00;;;4.70;;
26594;SDS011;14238;49.496;8.154;2022-08-30T13:16:43;4.97;;;4.40;;
26594;SDS011;14238;49.496;8.154;2022-08-30T13:22:22;5.07;;;4.77;;
26594;SDS011;14238;49.496;8.154;2022-08-30T13:24:50;4.93;;;4.53;;
26594;SDS011;14238;49.496;8.154;2022-08-30T13:27:16;5.27;;;4.83;;
26594;SDS011;14238;49.496;8.154;2022-08-30T13:29:42;5.07;;;4.67;;
26594;SDS011;14238;49.496;8.154;2022-08-30T13:32:08;5.17;;;4.67;;
26594;SDS011;14238;49.496;8.154;2022-08-30T13:34:33;5.00;;;4.60;;
26594;SDS011;14238;49.496;8.154;2022-08-30T13:37:00;5.33;;;4.70;;
26594;SDS011;14238;49.496;8.154;2022-08-30T13:39:27;5.30;;;4.90;;
26594;SDS011;14238;49.496;8.154;2022-08-30T13:41:53;4.20;;;3.90;;
26594;SDS011;14238;49.496;8.154;2022-08-30T13:44:20;4.90;;;4.30;;
26594;SDS011;14238;49.496;8.154;2022-08-30T13:46:48;4.40;;;4.00;;
26594;SDS011;14238;49.496;8.154;2022-08-30T13:49:21;5.10;;;4.60;;
26594;SDS011;14238;49.496;8.154;2022-08-30T13:51:59;5.23;;;4.20;;
26594;SDS011;14238;49.496;8.154;2022-08-30T13:54:26;4.60;;;4.20;;
26594;SDS011;14238;49.496;8.154;2022-08-30T13:56:52;4.60;;;4.30;;
26594;SDS011;14238;49.496;8.154;2022-08-30T13:59:19;6.40;;;5.30;;
26594;SDS011;14238;49.496;8.154;2022-08-30T14:01:45;7.10;;;4.40;;
26594;SDS011;14238;49.496;8.154;2022-08-30T14:04:12;4.37;;;4.07;;
26594;SDS011;14238;49.496;8.154;2022-08-30T14:06:37;4.63;;;4.23;;
26594;SDS011;14238;49.496;8.154;2022-08-30T14:09:03;4.60;;;3.93;;
26594;SDS011;14238;49.496;8.154;2022-08-30T14:11:31;4.50;;;3.90;;
26594;SDS011;14238;49.496;8.154;2022-08-30T14:13:58;4.80;;;4.40;;
26594;SDS011;14238;49.496;8.154;2022-08-30T14:16:24;5.80;;;4.10;;
26594;SDS011;14238;49.496;8.154;2022-08-30T14:18:49;4.30;;;3.90;;
26594;SDS011;14238;49.496;8.154;2022-08-30T14:21:15;3.67;;;3.47;;
26594;SDS011;14238;49.496;8.154;2022-08-30T14:23:41;4.40;;;4.00;;
26594;SDS011;14238;49.496;8.154;2022-08-30T14:26:10;7.00;;;4.03;;
26594;SDS011;14238;49.496;8.154;2022-08-30T14:28:40;4.77;;;4.40;;
26594;SDS011;14238;49.496;8.154;2022-08-30T14:31:06;4.60;;;4.30;;
26594;SDS011;14238;49.496;8.154;2022-08-30T14:33:31;4.10;;;3.80;;
26594;SDS011;14238;49.496;8.154;2022-08-30T14:35:57;4.97;;;4.47;;
26594;SDS011;14238;49.496;8.154;2022-08-30T14:38:23;4.57;;;4.20;;
26594;SDS011;14238;49.496;8.154;2022-08-30T14:40:48;9.23;;;5.00;;
26594;SDS011;14238;49.496;8.154;2022-08-30T14:43:14;5.27;;;4.77;;
26594;SDS011;14238;49.496;8.154;2022-08-30T14:45:39;4.60;;;4.20;;
26594;SDS011;14238;49.496;8.154;2022-08-30T14:48:05;4.10;;;3.80;;
26594;SDS011;14238;49.496;8.154;2022-08-30T14:50:33;4.07;;;3.77;;
26594;SDS011;14238;49.496;8.154;2022-08-30T14:53:00;4.13;;;3.73;;
26594;SDS011;14238;49.496;8.154;2022-08-30T14:55:26;4.07;;;3.77;;
26594;SDS011;14238;49.496;8.154;2022-08-30T14:57:53;4.03;;;3.70;;
26594;SDS011;14238;49.496;8.154;2022-08-30T15:00:20;5.13;;;4.00;;
26594;SDS011;14238;49.496;8.154;2022-08-30T15:02:47;3.93;;;3.63;;
26594;SDS011;14238;49.496;8.154;2022-08-30T15:05:12;4.60;;;4.20;;
26594;SDS011;14238;49.496;8.154;2022-08-30T15:07:38;3.17;;;2.97;;
26594;SDS011;14238;49.496;8.154;2022-08-30T15:10:05;3.60;;;3.30;;
26594;SDS011;14238;49.496;8.154;2022-08-30T15:12:31;3.50;;;3.20;;
26594;SDS011;14238;49.496;8.154;2022-08-30T15:14:57;4.13;;;3.87;;
26594;SDS011;14238;49.496;8.154;2022-08-30T15:17:22;3.60;;;3.30;;
26594;SDS011;14238;49.496;8.154;2022-08-30T15:19:48;3.43;;;3.20;;
26594;SDS011;14238;49.496;8.154;2022-08-30T15:22:14;6.83;;;4.10;;
26594;SDS011;14238;49.496;8.154;2022-08-30T15:24:39;4.00;;;3.70;;
26594;SDS011;14238;49.496;8.154;2022-08-30T15:27:05;3.50;;;3.30;;
26594;SDS011;14238;49.496;8.154;2022-08-30T15:29:31;4.27;;;3.97;;
26594;SDS011;14238;49.496;8.154;2022-08-30T15:31:57;3.53;;;3.30;;
26594;SDS011;14238;49.496;8.154;2022-08-30T15:34:23;3.90;;;3.70;;
26594;SDS011;14238;49.496;8.154;2022-08-30T15:36:49;3.77;;;3.47;;
26594;SDS011;14238;49.496;8.154;2022-08-30T15:39:15;4.37;;;3.93;;
26594;SDS011;14238;49.496;8.154;2022-08-30T15:41:41;3.57;;;3.37;;
26594;SDS011;14238;49.496;8.154;2022-08-30T15:44:07;4.03;;;3.67;;
26594;SDS011;14238;49.496;8.154;2022-08-30T15:46:35;3.30;;;3.20;;
26594;SDS011;14238;49.496;8.154;2022-08-30T15:49:04;4.00;;;3.70;;
26594;SDS011;14238;49.496;8.154;2022-08-30T15:51:37;4.23;;;3.87;;
26594;SDS011;14238;49.496;8.154;2022-08-30T15:54:04;3.50;;;3.30;;
26594;SDS011;14238;49.496;8.154;2022-08-30T15:56:30;3.00;;;2.80;;
26594;SDS011;14238;49.496;8.154;2022-08-30T15:58:56;3.70;;;3.50;;
26594;SDS011;14238;49.496;8.154;2022-08-30T16:01:22;4.17;;;3.77;;
26594;SDS011;14238;49.496;8.154;2022-08-30T16:03:48;3.87;;;3.67;;
26594;SDS011;14238;49.496;8.154;2022-08-30T16:06:19;3.53;;;3.33;;
26594;SDS011;14238;49.496;8.154;2022-08-30T16:08:47;3.70;;;3.50;;
26594;SDS011;14238;49.496;8.154;2022-08-30T16:11:14;3.80;;;3.50;;
26594;SDS011;14238;49.496;8.154;2022-08-30T16:13:41;4.10;;;3.80;;
26594;SDS011;14238;49.496;8.154;2022-08-30T16:16:07;5.60;;;3.87;;
26594;SDS011;14238;49.496;8.154;2022-08-30T16:18:34;5.80;;;4.80;;